Time;durP1;ratioP1;P1;durP2;ratioP2;P2;SDS_P1;SDS_P2;PMS_P1;PMS_P2;Temp;Humidity;BMP_temperature;BMP_pressure;BME280_temperature;BME280_humidity;BME280_pressure;Samples;Min_cycle;Max_cycle;Signal;HPM_P1;HPM_P2
2023/04/27 00:00:13;;;;;;;8.95;5.70;;;;;;;2.13;98.13;102100.72;5072211;28;20027;-88
2023/04/27 00:02:39;;;;;;;11.73;5.57;;;;;;;1.88;98.69;102065.25;5071880;28;20017;-87
2023/04/27 00:05:05;;;;;;;11.52;5.53;;;;;;;2.07;98.83;102101.66;5071968;28;20021;-86
2023/04/27 00:07:30;;;;;;;12.65;6.32;;;;;;;1.65;99.11;102042.47;5070773;28;20037;-87
2023/04/27 00:09:56;;;;;;;9.63;5.53;;;;;;;1.86;99.04;102094.13;5072149;28;20112;-87
2023/04/27 00:12:22;;;;;;;9.15;5.28;;;;;;;0.79;99.31;101899.69;5072237;28;20100;-89
2023/04/27 00:14:47;;;;;;;10.80;5.90;;;;;;;1.49;99.79;102028.19;5072012;28;20529;-88
2023/04/27 00:17:13;;;;;;;14.35;5.55;;;;;;;1.75;100.00;102073.81;5071957;28;20471;-87
2023/04/27 00:19:40;;;;;;;11.23;5.75;;;;;;;1.88;100.00;102103.47;5071745;28;20029;-87
2023/04/27 00:22:06;;;;;;;8.85;4.93;;;;;;;1.88;100.00;102095.81;5072204;28;20063;-88
2023/04/27 00:24:31;;;;;;;9.20;5.13;;;;;;;1.74;100.00;102089.97;5071887;28;20492;-88
2023/04/27 00:26:56;;;;;;;9.25;5.28;;;;;;;1.83;100.00;102100.09;5073226;28;20032;-88
2023/04/27 00:29:22;;;;;;;10.68;6.32;;;;;;;1.42;100.00;102034.16;5075799;28;20025;-88
2023/04/27 00:31:47;;;;;;;10.25;5.18;;;;;;;1.27;100.00;102021.50;5075804;28;20068;-87
2023/04/27 00:34:12;;;;;;;11.68;5.70;;;;;;;1.73;100.00;102094.22;5075440;28;20549;-88
2023/04/27 00:36:38;;;;;;;8.65;5.22;;;;;;;1.68;100.00;102102.75;5075526;28;20074;-88
2023/04/27 00:39:05;;;;;;;9.43;5.85;;;;;;;1.04;100.00;102022.47;5075615;28;20025;-88
2023/04/27 00:41:31;;;;;;;11.00;5.90;;;;;;;1.52;100.00;102103.69;5074287;28;20135;-87
2023/04/27 00:43:57;;;;;;;8.57;5.10;;;;;;;1.51;100.00;102104.53;5075282;28;20470;-89
2023/04/27 00:46:23;;;;;;;10.27;5.28;;;;;;;1.43;100.00;102104.56;5075512;28;20121;-89
2023/04/27 00:48:49;;;;;;;9.10;5.45;;;;;;;1.13;100.00;102062.28;5075146;28;20091;-89
2023/04/27 00:51:14;;;;;;;9.75;5.82;;;;;;;1.32;100.00;102106.31;5075563;28;20029;-88
2023/04/27 00:53:40;;;;;;;9.73;5.40;;;;;;;0.97;100.00;102043.69;5076162;28;20075;-78
2023/04/27 00:56:06;;;;;;;11.20;6.03;;;;;;;1.05;100.00;102064.00;5075694;28;20029;-78
2023/04/27 00:58:32;;;;;;;8.70;5.32;;;;;;;1.16;100.00;102085.16;5075168;28;20329;-78
2023/04/27 01:00:58;;;;;;;10.25;5.20;;;;;;;1.11;100.00;102082.66;5074019;28;20020;-78
2023/04/27 01:03:25;;;;;;;10.95;5.43;;;;;;;1.15;100.00;102098.72;5075179;28;20020;-77
2023/04/27 01:05:50;;;;;;;10.77;5.88;;;;;;;0.91;100.00;102066.63;5074779;28;20353;-84
2023/04/27 01:08:16;;;;;;;12.27;5.72;;;;;;;0.77;100.00;102055.63;5075047;28;20025;-88
2023/04/27 01:10:41;;;;;;;9.80;5.18;;;;;;;1.03;100.00;102101.34;5075075;28;20426;-88
2023/04/27 01:13:06;;;;;;;8.38;5.25;;;;;;;0.75;100.00;102059.88;5074780;28;20025;-88
2023/04/27 01:15:32;;;;;;;9.50;4.80;;;;;;;0.70;100.00;102054.81;5075017;28;20021;-78
2023/04/27 01:17:58;;;;;;;10.65;4.93;;;;;;;0.91;100.00;102093.75;5073619;28;20029;-78
2023/04/27 01:20:23;;;;;;;8.75;5.15;;;;;;;0.92;100.00;102097.97;5074600;28;20081;-88
2023/04/27 01:22:52;;;;;;;10.52;5.85;;;;;;;0.81;100.00;102096.31;5074612;28;20095;-85
2023/04/27 01:28:43;;;;;;;9.90;5.20;;;;;;;0.72;100.00;102090.41;5093285;28;20123;-88
2023/04/27 01:31:10;;;;;;;11.05;5.90;;;;;;;0.82;100.00;102099.69;5095003;28;20111;-88
2023/04/27 01:33:35;;;;;;;13.82;5.57;;;;;;;0.84;100.00;102103.91;5094898;28;20095;-87
2023/04/27 01:36:04;;;;;;;10.52;6.18;;;;;;;0.66;100.00;102078.53;5094597;28;20427;-84
2023/04/27 01:38:31;;;;;;;9.70;6.30;;;;;;;0.62;100.00;102073.47;5093513;28;20034;-83
2023/04/27 01:41:00;;;;;;;9.00;5.55;;;;;;;0.82;100.00;102095.44;5094489;28;20391;-87
2023/04/27 01:43:27;;;;;;;10.45;6.07;;;;;;;0.59;100.00;102059.06;5094429;28;20032;-84
2023/04/27 01:46:12;;;;;;;10.65;6.40;;;;;;;0.80;100.00;102092.06;5094513;28;20094;-79
2023/04/27 01:48:38;;;;;;;11.65;6.15;;;;;;;0.40;100.00;102019.31;5094515;28;20051;-85
2023/04/27 01:51:03;;;;;;;10.68;6.50;;;;;;;0.72;100.00;102065.81;5094289;28;20114;-85
2023/04/27 01:53:29;;;;;;;10.80;6.35;;;;;;;0.33;100.00;101998.13;5094308;28;20166;-78
2023/04/27 01:55:55;;;;;;;11.77;6.88;;;;;;;0.84;100.00;102088.66;5094432;28;20028;-80
2023/04/27 01:58:20;;;;;;;11.73;7.07;;;;;;;0.88;100.00;102086.09;5094133;28;20030;-80
2023/04/27 02:00:46;;;;;;;12.00;7.35;;;;;;;0.56;100.00;102041.28;5094365;28;20028;-85
2023/04/27 02:03:11;;;;;;;12.98;6.70;;;;;;;0.88;100.00;102086.09;5094406;28;20059;-81
2023/04/27 02:05:37;;;;;;;11.50;6.55;;;;;;;0.39;100.00;102010.81;5093786;28;20059;-87
2023/04/27 02:08:02;;;;;;;9.63;6.57;;;;;;;0.83;100.00;102084.44;5094023;28;20089;-85
2023/04/27 02:10:27;;;;;;;14.52;7.70;;;;;;;0.82;100.00;102079.34;5094136;28;20032;-81
2023/04/27 02:12:53;;;;;;;10.65;6.63;;;;;;;0.84;100.00;102077.66;5075924;28;20024;-77
2023/04/27 02:15:18;;;;;;;14.00;7.43;;;;;;;0.52;100.00;102026.88;5094151;28;20028;-77
2023/04/27 02:17:44;;;;;;;10.60;6.82;;;;;;;0.74;100.00;102058.19;5094007;28;20434;-78
2023/04/27 02:20:11;;;;;;;11.27;7.47;;;;;;;0.35;100.00;101998.13;5093808;28;20055;-79
2023/04/27 02:22:40;;;;;;;12.90;7.30;;;;;;;0.86;100.00;102079.31;5093674;28;20043;-79
2023/04/27 02:25:06;;;;;;;15.93;7.78;;;;;;;0.70;100.00;102034.47;5093722;28;20103;-79
2023/04/27 02:27:32;;;;;;;14.23;7.30;;;;;;;0.90;100.00;102071.72;5093528;28;20123;-76
2023/04/27 02:29:57;;;;;;;12.00;6.70;;;;;;;0.78;100.00;102054.78;5093636;28;20038;-77
2023/04/27 02:32:22;;;;;;;16.77;7.43;;;;;;;0.80;100.00;102051.41;5093842;28;20039;-78
2023/04/27 02:34:47;;;;;;;14.60;7.15;;;;;;;0.91;100.00;102061.53;5093608;28;20059;-77
2023/04/27 02:37:13;;;;;;;13.45;7.25;;;;;;;0.85;100.00;102059.00;5093400;28;20384;-77
2023/04/27 02:39:38;;;;;;;11.10;7.13;;;;;;;0.83;100.00;102048.84;5093329;28;20074;-77
2023/04/27 02:42:03;;;;;;;14.35;8.10;;;;;;;0.62;100.00;102007.38;5093392;28;20059;-77
2023/04/27 02:44:29;;;;;;;13.88;7.00;;;;;;;0.97;100.00;102050.47;5093171;28;20031;-78
2023/04/27 02:46:54;;;;;;;16.42;8.55;;;;;;;0.81;100.00;102025.13;5093464;28;20123;-78
2023/04/27 02:49:19;;;;;;;12.43;7.63;;;;;;;0.64;100.00;102011.59;5092948;28;20031;-77
2023/04/27 02:51:45;;;;;;;12.25;7.30;;;;;;;0.84;100.00;102059.84;5093227;28;20028;-78
2023/04/27 02:54:10;;;;;;;12.15;7.20;;;;;;;0.83;100.00;102061.53;5093195;28;20024;-78
2023/04/27 02:56:36;;;;;;;13.18;7.28;;;;;;;0.10;100.00;101962.63;5093247;28;20016;-77
2023/04/27 02:59:01;;;;;;;14.23;6.78;;;;;;;0.73;100.00;102067.50;5092937;28;20027;-77
2023/04/27 03:01:26;;;;;;;13.77;7.53;;;;;;;0.72;100.00;102058.19;5093280;28;20020;-77
2023/04/27 03:03:52;;;;;;;12.82;7.18;;;;;;;0.69;100.00;102062.41;5093157;28;20024;-77
2023/04/27 03:06:17;;;;;;;15.68;7.68;;;;;;;0.48;100.00;102036.19;5074276;28;20157;-76
2023/04/27 03:08:42;;;;;;;14.00;7.20;;;;;;;0.59;100.00;102064.16;5074751;28;20024;-78
2023/04/27 03:11:08;;;;;;;14.07;7.82;;;;;;;0.55;100.00;102059.91;5092778;28;20031;-77
2023/04/27 03:13:40;;;;;;;15.68;6.75;;;;;;;0.48;100.00;102061.59;5092701;28;20103;-78
2023/04/27 03:16:07;;;;;;;13.70;7.55;;;;;;;0.43;100.00;102055.72;5092679;28;20035;-76
2023/04/27 03:18:32;;;;;;;13.65;7.28;;;;;;;0.46;100.00;102047.22;5092730;28;20051;-78
2023/04/27 03:21:25;;;;;;;12.23;6.95;;;;;;;0.44;100.00;102056.56;5092695;28;20058;-80
2023/04/27 03:23:51;;;;;;;12.48;7.32;;;;;;;0.41;100.00;102061.66;5089313;28;20043;-77
2023/04/27 03:26:16;;;;;;;12.07;7.25;;;;;;;0.42;100.00;102065.88;5092518;28;20115;-77
2023/04/27 03:28:41;;;;;;;13.68;7.55;;;;;;;0.42;100.00;102065.88;5092839;28;20055;-77
2023/04/27 03:31:09;;;;;;;14.15;8.20;;;;;;;0.20;100.00;102025.25;5092636;28;20047;-76
2023/04/27 03:33:35;;;;;;;16.08;8.50;;;;;;;0.44;100.00;102048.94;5092379;28;20066;-77
2023/04/27 03:36:04;;;;;;;14.05;8.45;;;;;;;0.21;100.00;102016.78;5092452;28;20047;-76
2023/04/27 03:38:30;;;;;;;13.82;7.95;;;;;;;0.53;100.00;102082.78;5092610;28;20366;-77
2023/04/27 03:40:56;;;;;;;13.13;7.68;;;;;;;0.13;100.00;102015.09;5092674;28;20024;-80
2023/04/27 03:43:22;;;;;;;13.73;7.72;;;;;;;0.50;100.00;102077.72;5092270;28;20051;-78
2023/04/27 03:45:47;;;;;;;13.38;7.85;;;;;;;0.27;100.00;102043.84;5092166;28;20020;-78
2023/04/27 03:48:13;;;;;;;15.07;7.28;;;;;;;0.16;100.00;102030.31;5092294;28;20379;-80
2023/04/27 03:50:39;;;;;;;13.90;7.55;;;;;;;0.07;100.00;102021.00;5092508;28;20024;-79
2023/04/27 03:53:05;;;;;;;13.32;8.30;;;;;;;0.42;100.00;102089.59;5092189;28;20379;-80
2023/04/27 03:55:31;;;;;;;13.55;7.60;;;;;;;0.27;100.00;102070.09;5092264;28;20017;-78
2023/04/27 03:57:56;;;;;;;13.93;7.47;;;;;;;0.36;100.00;102083.66;5092247;28;20352;-80
2023/04/27 04:00:21;;;;;;;15.35;7.82;;;;;;;0.12;100.00;102052.34;5092384;28;20051;-80
2023/04/27 04:02:47;;;;;;;13.00;7.90;;;;;;;0.27;100.00;102081.97;5095277;28;20363;-80
2023/04/27 04:05:13;;;;;;;13.70;7.72;;;;;;;0.06;100.00;102059.09;5096389;28;20024;-83
2023/04/27 04:07:42;;;;;;;12.50;7.63;;;;;;;0.22;100.00;102086.22;5078386;28;20028;-86
2023/04/27 04:10:09;;;;;;;12.45;7.22;;;;;;;0.10;100.00;102069.28;5096301;28;20375;-86
2023/04/27 04:12:35;;;;;;;17.05;7.60;;;;;;;0.19;100.00;102081.13;5078319;28;20520;-86
2023/04/27 04:15:02;;;;;;;12.27;7.28;;;;;;;0.21;100.00;102081.97;5096234;28;20024;-85
2023/04/27 04:17:27;;;;;;;15.60;8.25;;;;;;;0.10;100.00;102059.13;5096254;28;20035;-86
2023/04/27 04:19:53;;;;;;;13.57;8.15;;;;;;;-0.14;100.00;102033.72;5096399;28;20028;-86
2023/04/27 04:22:18;;;;;;;14.15;7.45;;;;;;;-0.20;100.00;102015.94;5096087;28;20032;-86
2023/04/27 04:24:43;;;;;;;16.13;8.25;;;;;;;0.12;100.00;102059.97;5096094;28;20031;-89
2023/04/27 04:27:08;;;;;;;13.18;7.93;;;;;;;0.06;100.00;102042.19;5096012;28;20035;-87
2023/04/27 04:29:34;;;;;;;14.45;8.93;;;;;;;0.42;100.00;102097.22;5095678;28;20020;-86
2023/04/27 04:31:59;;;;;;;13.65;8.15;;;;;;;0.48;100.00;102097.19;5096140;28;20035;-88
2023/04/27 04:34:25;;;;;;;16.42;8.50;;;;;;;0.28;100.00;102063.34;5096239;28;20024;-80
2023/04/27 04:36:50;;;;;;;16.23;8.18;;;;;;;0.56;100.00;102102.28;5095904;28;20087;-81
2023/04/27 04:39:19;;;;;;;15.25;8.55;;;;;;;0.53;100.00;102085.34;5095720;28;20028;-83
2023/04/27 04:41:44;;;;;;;13.65;8.18;;;;;;;0.56;100.00;102077.69;5095609;28;20083;-82
2023/04/27 04:44:10;;;;;;;18.50;8.73;;;;;;;0.76;100.00;102099.69;5095478;28;20028;-80
2023/04/27 04:46:36;;;;;;;16.30;8.85;;;;;;;0.73;100.00;102107.34;5095571;28;20082;-81
2023/04/27 04:49:01;;;;;;;16.77;8.20;;;;;;;0.77;100.00;102093.75;5095565;28;20137;-82
2023/04/27 04:51:26;;;;;;;14.15;8.48;;;;;;;0.97;100.00;102119.13;5095600;28;20020;-86
2023/04/27 04:53:52;;;;;;;14.82;8.50;;;;;;;1.07;100.00;102116.56;5077102;28;20039;-89
2023/04/27 04:56:17;;;;;;;15.20;9.07;;;;;;;1.17;100.00;102111.44;5077008;28;20067;-81
2023/04/27 04:58:42;;;;;;;18.10;9.35;;;;;;;1.33;100.00;102118.19;5095327;28;20016;-86
2023/04/27 05:01:08;;;;;;;16.48;8.73;;;;;;;1.23;100.00;102078.34;5095181;28;20028;-83
2023/04/27 05:03:33;;;;;;;16.17;9.48;;;;;;;1.55;100.00;102119.78;5095385;28;20020;-84
2023/04/27 05:05:59;;;;;;;15.10;9.18;;;;;;;1.42;100.00;102085.06;5095322;28;20023;-87
2023/04/27 05:08:24;;;;;;;17.40;9.43;;;;;;;1.65;100.00;102097.66;5077694;28;20028;-79
2023/04/27 05:10:53;;;;;;;16.33;8.88;;;;;;;1.94;100.00;102125.50;5095056;28;20467;-84
2023/04/27 05:13:19;;;;;;;16.90;8.85;;;;;;;2.04;100.00;102129.66;5095013;28;20028;-78
2023/04/27 05:15:45;;;;;;;18.02;9.68;;;;;;;2.08;100.00;102112.69;5095080;28;20020;-78
2023/04/27 05:18:10;;;;;;;15.00;8.40;;;;;;;1.84;100.00;102057.63;5094973;28;20150;-78
2023/04/27 05:20:36;;;;;;;14.88;8.73;;;;;;;2.33;100.00;102119.25;5094941;28;20103;-79
2023/04/27 05:23:01;;;;;;;16.35;9.25;;;;;;;2.49;100.00;102122.53;5094762;28;20023;-77
2023/04/27 05:25:31;;;;;;;16.85;8.75;;;;;;;2.61;99.06;102124.97;5094819;28;20224;-78
2023/04/27 05:27:56;;;;;;;16.17;8.70;;;;;;;2.75;98.24;102124.81;5095055;28;20027;-79
2023/04/27 05:30:22;;;;;;;16.35;8.20;;;;;;;2.11;98.20;102003.94;5094642;28;20024;-79
2023/04/27 05:32:47;;;;;;;16.65;8.85;;;;;;;2.37;97.68;102031.72;5095054;28;20083;-78
2023/04/27 05:35:13;;;;;;;16.67;9.35;;;;;;;3.00;97.50;102117.78;5094835;28;20514;-79
2023/04/27 05:37:38;;;;;;;15.35;9.15;;;;;;;3.19;96.69;102123.53;5094557;28;20051;-78
2023/04/27 05:40:08;;;;;;;13.45;9.00;;;;;;;3.04;95.45;102078.59;5094637;28;20107;-78
2023/04/27 05:42:34;;;;;;;13.65;8.27;;;;;;;3.42;95.77;102124.09;5094548;28;20047;-79
2023/04/27 05:45:00;;;;;;;12.90;8.27;;;;;;;3.66;94.65;102125.50;5094603;28;20036;-78
2023/04/27 05:47:25;;;;;;;14.25;8.52;;;;;;;3.88;94.75;102118.38;5094462;28;20532;-79
2023/04/27 05:49:51;;;;;;;15.00;7.82;;;;;;;4.68;93.08;102126.44;5094474;28;20135;-79
2023/04/27 05:52:18;;;;;;;12.68;7.53;;;;;;;5.70;87.36;102077.41;5075669;28;20039;-77
2023/04/27 05:54:47;;;;;;;12.45;7.93;;;;;;;7.07;81.05;102124.47;5094321;28;20020;-79
2023/04/27 05:57:14;;;;;;;13.98;7.90;;;;;;;7.69;74.85;102094.38;5094412;28;20032;-80
2023/04/27 05:59:39;;;;;;;12.25;7.50;;;;;;;8.14;71.81;102069.81;5094149;28;20024;-79
2023/04/27 06:02:05;;;;;;;12.98;6.55;;;;;;;9.12;68.57;102088.72;5094448;28;20020;-79
2023/04/27 06:04:32;;;;;;;12.00;7.10;;;;;;;10.19;64.00;102063.03;5094284;28;20028;-79
2023/04/27 06:06:57;;;;;;;11.25;6.80;;;;;;;11.82;58.75;102119.59;5094175;28;20039;-79
2023/04/27 06:09:23;;;;;;;11.75;6.15;;;;;;;12.76;54.89;102116.63;5094086;28;20380;-79
2023/04/27 06:11:48;;;;;;;11.18;6.07;;;;;;;13.32;50.84;102115.44;5094112;28;20536;-78
2023/04/27 06:14:13;;;;;;;11.15;5.60;;;;;;;13.48;49.75;102080.81;5093879;28;20028;-79
2023/04/27 06:16:39;;;;;;;11.13;5.68;;;;;;;14.23;47.34;102117.25;5083503;28;20384;-75
2023/04/27 06:19:05;;;;;;;8.98;5.20;;;;;;;14.06;47.68;102087.06;5071341;28;20017;-78
2023/04/27 06:21:34;;;;;;;8.23;4.80;;;;;;;14.28;47.05;102094.44;5074122;28;20378;-80
2023/04/27 06:24:00;;;;;;;7.57;4.88;;;;;;;14.23;45.73;102065.28;5072882;28;20375;-78
2023/04/27 06:26:25;;;;;;;9.25;5.03;;;;;;;14.80;44.84;102086.19;5073411;28;20020;-75
2023/04/27 06:28:50;;;;;;;12.45;5.00;;;;;;;15.32;43.22;102088.16;5073261;28;20170;-79
2023/04/27 06:31:16;;;;;;;12.00;4.97;;;;;;;15.71;42.09;102111.69;5073425;28;20470;-76
2023/04/27 06:33:41;;;;;;;9.10;4.50;;;;;;;15.80;41.43;102065.16;5073330;28;20028;-75
2023/04/27 06:36:07;;;;;;;9.60;4.47;;;;;;;16.22;40.17;102083.19;5073021;28;20029;-75
2023/04/27 06:38:33;;;;;;;8.20;4.88;;;;;;;16.51;40.03;102119.47;5072714;28;20094;-78
2023/04/27 06:40:58;;;;;;;9.23;4.75;;;;;;;16.34;39.49;102120.63;5054951;28;20040;-80
2023/04/27 06:43:24;;;;;;;6.80;4.13;;;;;;;16.73;39.80;102116.31;5091419;28;20075;-76
2023/04/27 06:45:49;;;;;;;8.90;4.43;;;;;;;17.10;38.79;102110.19;5092860;28;20117;-75
2023/04/27 06:48:15;;;;;;;9.10;4.90;;;;;;;17.59;39.21;102117.13;5075002;28;20627;-79
2023/04/27 06:50:41;;;;;;;9.52;4.63;;;;;;;17.47;37.13;102097.13;5093408;28;20506;-80
2023/04/27 06:53:07;;;;;;;9.60;4.75;;;;;;;17.68;37.92;102086.91;5093497;28;20047;-78
2023/04/27 06:55:32;;;;;;;9.00;4.32;;;;;;;17.38;37.29;102084.72;5093219;28;20036;-78
2023/04/27 06:57:57;;;;;;;9.07;4.05;;;;;;;17.69;36.38;102104.25;5093338;28;20406;-81
2023/04/27 07:00:23;;;;;;;10.82;4.15;;;;;;;17.78;35.92;102106.22;5074913;28;20024;-80
2023/04/27 07:02:49;;;;;;;9.43;4.25;;;;;;;17.78;35.41;102111.44;5093026;28;20410;-79
2023/04/27 07:05:14;;;;;;;6.57;3.85;;;;;;;17.53;35.89;102096.69;5093329;28;20020;-78
2023/04/27 07:07:39;;;;;;;9.70;4.60;;;;;;;17.20;35.69;102005.94;5093074;28;20119;-77
2023/04/27 07:10:05;;;;;;;9.50;4.25;;;;;;;18.06;35.17;102103.25;5092949;28;20380;-77
2023/04/27 07:12:31;;;;;;;9.18;4.32;;;;;;;18.16;35.95;102106.00;5092766;28;20035;-78
2023/04/27 07:14:56;;;;;;;8.52;4.15;;;;;;;17.49;34.64;102110.91;5093080;28;20028;-78
2023/04/27 07:17:22;;;;;;;7.13;4.10;;;;;;;16.09;37.80;102090.13;5092689;28;20039;-79
2023/04/27 07:19:47;;;;;;;8.82;4.20;;;;;;;14.46;40.15;102090.81;5092874;28;20028;-80
2023/04/27 07:22:14;;;;;;;8.55;5.22;;;;;;;13.35;43.49;102115.25;5092742;28;20016;-80
2023/04/27 07:24:40;;;;;;;9.68;4.80;;;;;;;12.35;45.67;102117.81;5092640;28;20040;-79
2023/04/27 07:27:05;;;;;;;9.73;4.78;;;;;;;11.58;47.89;102117.19;5092859;28;20032;-78
2023/04/27 07:29:31;;;;;;;11.60;5.15;;;;;;;11.08;50.40;102117.75;5072343;28;20365;-74
2023/04/27 07:31:56;;;;;;;7.90;5.05;;;;;;;10.68;52.14;102113.50;5083120;28;20024;-80
2023/04/27 07:34:21;;;;;;;9.75;5.07;;;;;;;10.28;52.87;102088.50;5082920;28;20463;-79
2023/04/27 07:36:47;;;;;;;9.32;5.18;;;;;;;9.89;53.98;102076.28;5080866;28;20078;-80
2023/04/27 07:39:13;;;;;;;10.38;5.07;;;;;;;9.90;54.93;102097.78;5081474;28;20371;-83
2023/04/27 07:41:38;;;;;;;10.82;5.70;;;;;;;9.73;55.59;102080.38;5064319;28;20403;-80
2023/04/27 07:44:03;;;;;;;12.02;6.50;;;;;;;9.81;55.43;102105.88;5089113;28;20024;-78
2023/04/27 07:46:30;;;;;;;10.80;6.13;;;;;;;9.60;57.02;102076.59;5092454;28;20024;-82
2023/04/27 07:48:58;;;;;;;9.32;5.57;;;;;;;9.85;57.67;102113.44;5092532;28;20219;-85
2023/04/27 07:51:24;;;;;;;9.90;6.15;;;;;;;9.66;57.01;102059.16;5074235;28;20422;-78
2023/04/27 07:53:50;;;;;;;13.82;5.47;;;;;;;9.91;57.05;102110.63;5092284;28;20024;-86
2023/04/27 07:56:15;;;;;;;10.10;5.80;;;;;;;9.91;56.78;102112.34;5092397;28;20062;-78
2023/04/27 07:58:41;;;;;;;12.20;6.20;;;;;;;9.69;56.64;102086.56;5092137;28;20047;-79
2023/04/27 08:01:07;;;;;;;11.90;5.88;;;;;;;9.78;57.16;102083.63;5092353;28;20043;-77
2023/04/27 08:03:32;;;;;;;10.98;6.15;;;;;;;10.04;57.22;102101.50;5073478;28;20036;-77
2023/04/27 08:05:58;;;;;;;11.25;5.20;;;;;;;10.21;58.04;102094.78;5074487;28;20391;-77
2023/04/27 08:08:23;;;;;;;8.82;5.30;;;;;;;10.33;56.40;102086.59;5092318;28;20028;-77
2023/04/27 08:10:48;;;;;;;11.88;5.82;;;;;;;10.59;56.16;102096.63;5092141;28;20030;-76
2023/04/27 08:13:14;;;;;;;14.85;5.80;;;;;;;10.78;55.27;102109.59;5092038;28;20111;-78
2023/04/27 08:15:39;;;;;;;9.23;5.65;;;;;;;11.01;55.34;102111.22;5092311;28;20102;-79
2023/04/27 08:18:04;;;;;;;9.82;5.22;;;;;;;11.21;52.72;102110.31;5092245;28;20016;-77
2023/04/27 08:20:30;;;;;;;10.48;5.65;;;;;;;11.22;52.65;102087.88;5092165;28;20027;-78
2023/04/27 08:22:55;;;;;;;10.93;5.35;;;;;;;11.55;53.80;102112.19;5092227;28;20023;-78
2023/04/27 08:25:20;;;;;;;9.95;5.70;;;;;;;11.57;50.61;102114.69;5091978;28;20054;-77
2023/04/27 08:27:46;;;;;;;10.38;5.97;;;;;;;11.39;52.29;102109.44;5092060;28;20498;-85
2023/04/27 08:30:11;;;;;;;9.95;5.25;;;;;;;11.33;51.66;102112.34;5092205;28;20387;-78
2023/04/27 08:32:40;;;;;;;9.23;4.72;;;;;;;11.32;51.49;102094.31;5080640;28;20030;-76
2023/04/27 08:35:06;;;;;;;10.43;5.45;;;;;;;11.60;51.22;102106.78;5074770;28;20102;-76
2023/04/27 08:37:31;;;;;;;10.95;5.28;;;;;;;11.60;51.64;102074.00;5092609;28;20040;-78
2023/04/27 08:39:56;;;;;;;10.52;5.13;;;;;;;11.75;50.67;102070.69;5092166;28;20050;-76
2023/04/27 08:42:22;;;;;;;10.07;5.13;;;;;;;11.94;49.21;102083.59;5091518;28;20047;-83
2023/04/27 08:44:47;;;;;;;10.80;4.53;;;;;;;11.83;48.14;102092.81;5092091;28;20030;-79
2023/04/27 08:47:12;;;;;;;10.77;5.05;;;;;;;11.16;49.88;101978.66;5092037;28;20036;-91
2023/04/27 08:49:40;;;;;;;12.35;5.95;;;;;;;11.88;49.68;102085.63;5095425;28;20410;-78
2023/04/27 08:52:15;;;;;;;10.65;5.32;;;;;;;12.00;49.08;102092.84;5077725;28;20379;-79
2023/04/27 08:54:41;;;;;;;9.27;5.00;;;;;;;11.97;48.70;102067.91;5095565;28;20024;-81
2023/04/27 08:57:15;;;;;;;9.60;4.43;;;;;;;11.87;48.57;102043.38;5077717;28;20039;-81
2023/04/27 08:59:43;;;;;;;8.80;4.43;;;;;;;12.17;46.68;102084.22;5077249;28;20039;-77
2023/04/27 09:02:19;;;;;;;9.32;4.78;;;;;;;12.09;47.75;102057.84;5095419;28;20075;-80
2023/04/27 09:04:44;;;;;;;8.13;5.07;;;;;;;12.22;47.50;102061.53;5095466;28;20023;-82
2023/04/27 09:07:14;;;;;;;9.88;4.70;;;;;;;12.06;45.86;102032.97;5095415;28;20032;-78
2023/04/27 09:09:40;;;;;;;9.52;4.72;;;;;;;12.36;45.43;102087.56;5095134;28;20035;-82
2023/04/27 09:12:20;;;;;;;7.78;4.55;;;;;;;12.42;45.81;102089.03;5095348;28;20028;-79
2023/04/27 09:15:07;;;;;;;11.30;6.07;;;;;;;12.59;46.61;102089.84;5095291;28;20368;-80
2023/04/27 09:17:37;;;;;;;10.93;5.20;;;;;;;12.47;47.18;102035.22;5095869;28;20031;-76
2023/04/27 09:20:12;;;;;;;7.13;4.38;;;;;;;12.84;45.26;102080.78;5077273;28;20391;-83
2023/04/27 09:23:09;;;;;;;12.18;5.30;;;;;;;12.89;46.46;102086.59;5095293;28;20028;-81
2023/04/27 09:25:34;;;;;;;10.93;5.35;;;;;;;12.63;46.51;102060.25;5032877;28;20041;-81
2023/04/27 09:28:00;;;;;;;9.52;5.30;;;;;;;12.51;47.53;102062.66;5016102;28;20047;-81
2023/04/27 09:30:27;;;;;;;10.48;5.60;;;;;;;12.69;46.63;102079.84;5034936;28;20482;-88
2023/04/27 09:32:55;;;;;;;10.85;5.68;;;;;;;12.48;47.09;102068.81;5032785;28;20034;-88
2023/04/27 09:35:28;;;;;;;10.27;5.40;;;;;;;12.60;47.90;102075.97;5032648;28;20090;-89
2023/04/27 09:37:54;;;;;;;9.43;5.18;;;;;;;12.59;44.46;102074.31;5032620;28;20060;-88
2023/04/27 09:40:29;;;;;;;9.30;5.43;;;;;;;12.39;46.58;102073.63;5032688;28;20525;-91
2023/04/27 09:42:57;;;;;;;10.40;4.95;;;;;;;12.19;44.21;102075.47;5032609;28;20492;-89
2023/04/27 09:45:25;;;;;;;8.85;5.45;;;;;;;12.11;45.01;102066.41;5032464;28;20107;-89
2023/04/27 09:47:51;;;;;;;9.77;5.45;;;;;;;11.81;46.64;102004.06;5032262;28;20095;-89
2023/04/27 09:50:17;;;;;;;9.38;5.20;;;;;;;12.03;44.48;102031.38;5032637;28;20033;-76
2023/04/27 09:52:42;;;;;;;10.30;4.80;;;;;;;12.22;44.39;102070.13;5033115;28;20059;-92
2023/04/27 09:55:24;;;;;;;7.18;4.50;;;;;;;12.13;44.00;102046.47;5034836;28;20116;-89
2023/04/27 09:58:11;;;;;;;9.05;5.03;;;;;;;12.36;45.37;102061.66;5033620;28;20482;-89
2023/04/27 10:00:45;;;;;;;10.63;4.75;;;;;;;12.54;44.27;102057.31;5031811;28;20473;-87
2023/04/27 10:03:18;;;;;;;10.15;5.00;;;;;;;12.77;45.47;102064.72;5094775;28;20048;-83
2023/04/27 10:06:05;;;;;;;9.38;5.07;;;;;;;12.87;42.82;102057.28;5094360;28;20375;-75
2023/04/27 10:08:34;;;;;;;9.73;5.40;;;;;;;12.73;43.21;102052.00;5093160;28;20040;-76
2023/04/27 10:10:59;;;;;;;8.75;4.45;;;;;;;12.50;43.45;102014.34;5094768;28;20095;-79
2023/04/27 10:13:25;;;;;;;7.07;3.90;;;;;;;12.50;42.47;101998.78;5094361;28;20070;-74
2023/04/27 10:15:52;;;;;;;8.60;4.05;;;;;;;12.80;42.02;102043.84;5093868;28;20106;-77
2023/04/27 10:18:29;;;;;;;9.60;4.40;;;;;;;12.95;42.28;102054.28;5093798;28;20025;-78
2023/04/27 10:20:56;;;;;;;8.98;4.53;;;;;;;12.97;41.15;102065.41;5094099;28;20028;-81
2023/04/27 10:23:25;;;;;;;7.18;4.35;;;;;;;12.90;41.12;102064.91;5094432;28;20035;-76
2023/04/27 10:25:51;;;;;;;7.50;4.70;;;;;;;12.68;41.26;102048.78;5093655;28;20082;-76
2023/04/27 10:28:17;;;;;;;6.55;4.07;;;;;;;12.62;41.67;102058.59;5075625;28;20020;-79
2023/04/27 10:30:50;;;;;;;9.52;4.40;;;;;;;12.47;41.05;102037.78;5074970;28;20386;-76
2023/04/27 10:33:20;;;;;;;8.23;5.00;;;;;;;12.59;41.82;102070.88;5093660;28;20035;-79
2023/04/27 10:35:55;;;;;;;7.68;4.70;;;;;;;12.69;43.46;102066.06;5093579;28;20055;-80
2023/04/27 10:38:27;;;;;;;9.25;4.32;;;;;;;12.23;42.80;101985.50;5093706;28;20028;-76
2023/04/27 10:41:00;;;;;;;8.95;4.65;;;;;;;12.33;43.99;102010.84;5093465;28;20099;-77
2023/04/27 10:43:28;;;;;;;7.43;4.60;;;;;;;12.35;41.16;102021.97;5093254;28;20048;-80
2023/04/27 10:46:05;;;;;;;8.45;4.40;;;;;;;12.53;42.27;102053.03;5093512;28;20122;-80
2023/04/27 10:48:31;;;;;;;8.32;4.60;;;;;;;12.49;42.78;102028.22;5093531;28;20384;-84
2023/04/27 10:50:57;;;;;;;8.63;5.20;;;;;;;12.61;42.11;102046.53;5084945;28;20028;-85
2023/04/27 10:53:22;;;;;;;8.18;5.10;;;;;;;12.58;42.87;102044.09;5093339;28;20024;-77
2023/04/27 10:55:55;;;;;;;9.50;5.82;;;;;;;12.44;42.65;102040.56;5093194;28;20500;-83
2023/04/27 10:58:23;;;;;;;9.68;4.88;;;;;;;12.27;42.26;102049.19;5093459;28;20028;-80
2023/04/27 11:00:49;;;;;;;12.20;5.90;;;;;;;12.18;43.50;102036.69;5093593;28;20043;-80
2023/04/27 11:03:19;;;;;;;10.85;5.32;;;;;;;12.10;43.03;101998.25;5093177;28;20024;-81
2023/04/27 11:05:46;;;;;;;10.65;4.88;;;;;;;12.37;41.30;102034.00;5093163;28;20028;-86
2023/04/27 11:08:14;;;;;;;10.48;5.15;;;;;;;12.09;43.01;101973.25;5092985;28;20375;-80
2023/04/27 11:10:42;;;;;;;10.15;5.43;;;;;;;12.38;44.17;101994.22;5092715;28;20028;-83
2023/04/27 11:13:13;;;;;;;9.25;5.53;;;;;;;12.52;43.28;102009.91;5092777;28;20102;-84
2023/04/27 11:15:56;;;;;;;9.73;5.05;;;;;;;12.42;43.39;101980.22;5074780;28;20039;-82
2023/04/27 11:18:24;;;;;;;10.32;5.82;;;;;;;12.61;44.09;102007.69;5093064;28;20491;-84
2023/04/27 11:21:04;;;;;;;8.73;4.90;;;;;;;12.40;43.37;101972.53;5093087;28;20028;-77
2023/04/27 11:23:35;;;;;;;10.75;6.07;;;;;;;12.44;44.34;101978.38;5091696;28;20081;-78